createdAt,value
2018-07-14T00:01:33.309Z,9.98
2018-07-14T00:04:01.806Z,10.70
2018-07-14T00:06:30.372Z,10.43
2018-07-14T00:08:58.865Z,9.98
2018-07-14T00:11:27.341Z,8.23
2018-07-14T00:13:56.547Z,8.10
2018-07-14T00:16:25.969Z,7.97
2018-07-14T00:18:54.413Z,7.87
2018-07-14T00:21:22.885Z,8.00
2018-07-14T00:23:51.407Z,8.70
2018-07-14T00:26:19.864Z,10.50
2018-07-14T00:28:48.702Z,8.15
2018-07-14T00:31:17.547Z,9.03
2018-07-14T00:33:46.183Z,7.42
2018-07-14T00:36:14.693Z,8.33
2018-07-14T00:38:43.134Z,7.70
2018-07-14T00:41:11.614Z,8.60
2018-07-14T00:43:40.101Z,7.72
2018-07-14T00:46:08.549Z,9.25
2018-07-14T00:48:36.971Z,9.63
2018-07-14T00:51:05.441Z,8.63
2018-07-14T00:53:33.980Z,7.35
2018-07-14T00:56:02.389Z,7.97
2018-07-14T00:58:30.966Z,8.63
2018-07-14T01:01:00.137Z,8.35
2018-07-14T01:03:28.616Z,8.78
2018-07-14T01:05:57.029Z,9.00
2018-07-14T01:08:25.516Z,9.75
2018-07-14T01:10:54.517Z,11.03
2018-07-14T01:13:22.954Z,12.05
2018-07-14T01:15:51.394Z,9.25
2018-07-14T01:18:19.889Z,10.75
2018-07-14T01:20:48.336Z,8.50
2018-07-14T01:23:16.732Z,8.73
2018-07-14T01:25:45.426Z,8.73
2018-07-14T01:28:13.948Z,9.25
2018-07-14T01:30:42.384Z,9.98
2018-07-14T01:33:10.793Z,9.30
2018-07-14T01:35:39.239Z,10.43
2018-07-14T01:38:07.733Z,8.73
2018-07-14T01:40:36.179Z,11.28
2018-07-14T01:43:04.572Z,9.73
2018-07-14T01:45:33.119Z,10.50
2018-07-14T01:48:01.557Z,11.00
2018-07-14T01:50:30.125Z,9.28
2018-07-14T01:52:58.598Z,10.60
2018-07-14T01:55:27.656Z,10.53
2018-07-14T01:57:56.288Z,10.63
2018-07-14T02:00:24.817Z,10.23
2018-07-14T02:02:53.236Z,10.78
2018-07-14T02:05:22.318Z,9.65
2018-07-14T02:07:51.280Z,11.75
2018-07-14T02:10:19.708Z,9.08
2018-07-14T02:12:48.712Z,10.53
2018-07-14T02:15:17.197Z,14.38
2018-07-14T02:17:45.751Z,10.13
2018-07-14T02:20:14.176Z,11.57
2018-07-14T02:22:42.673Z,10.90
2018-07-14T02:25:11.108Z,11.45
2018-07-14T02:27:39.530Z,10.53
2018-07-14T02:30:07.993Z,12.00
2018-07-14T02:32:37.133Z,14.70
2018-07-14T02:35:05.676Z,13.50
2018-07-14T02:37:34.105Z,11.30
2018-07-14T02:40:02.566Z,11.55
2018-07-14T02:42:31.058Z,11.78
2018-07-14T02:45:02.521Z,12.75
2018-07-14T02:47:30.924Z,11.88
2018-07-14T02:49:59.479Z,12.28
2018-07-14T02:52:27.940Z,13.18
2018-07-14T02:54:56.350Z,12.80
2018-07-14T02:57:24.828Z,12.23
2018-07-14T02:59:53.284Z,13.25
2018-07-14T03:02:21.857Z,13.03
2018-07-14T03:04:50.252Z,15.55
2018-07-14T03:07:18.718Z,14.83
2018-07-14T03:09:47.165Z,12.43
2018-07-14T03:12:15.640Z,13.35
2018-07-14T03:14:44.084Z,14.28
2018-07-14T03:17:12.548Z,13.50
2018-07-14T03:19:40.986Z,14.50
2018-07-14T03:22:09.481Z,14.18
2018-07-14T03:24:37.928Z,13.48
2018-07-14T03:27:06.329Z,13.03
2018-07-14T03:29:34.773Z,14.83
2018-07-14T03:32:03.193Z,13.80
2018-07-14T03:34:31.680Z,16.07
2018-07-14T03:37:00.261Z,14.13
2018-07-14T03:39:28.688Z,15.45
2018-07-14T03:41:57.133Z,14.58
2018-07-14T03:44:25.605Z,13.93
2018-07-14T03:46:54.021Z,14.95
2018-07-14T03:49:22.506Z,13.55
2018-07-14T03:51:51.121Z,13.83
2018-07-14T03:54:19.554Z,13.53
2018-07-14T03:56:48.134Z,13.58
2018-07-14T03:59:16.656Z,14.15
2018-07-14T04:01:45.098Z,12.73
2018-07-14T04:04:14.311Z,12.10
2018-07-14T04:06:42.785Z,14.63
2018-07-14T04:09:11.223Z,13.10
2018-07-14T04:11:39.721Z,13.50
2018-07-14T04:14:08.162Z,13.78
2018-07-14T04:16:37.305Z,13.50
2018-07-14T04:19:05.784Z,13.72
2018-07-14T04:21:34.222Z,13.93
2018-07-14T04:24:02.689Z,18.55
2018-07-14T04:26:31.110Z,14.55
2018-07-14T04:28:59.564Z,14.80
2018-07-14T04:31:28.958Z,13.50
2018-07-14T04:33:57.396Z,13.98
2018-07-14T04:36:26.309Z,13.72
2018-07-14T04:38:55.793Z,13.68
2018-07-14T04:41:24.502Z,13.78
2018-07-14T04:43:52.702Z,13.03
2018-07-14T04:46:21.199Z,13.05
2018-07-14T04:48:49.766Z,13.85
2018-07-14T04:51:18.184Z,13.70
2018-07-14T04:53:46.633Z,15.38
2018-07-14T04:56:16.057Z,13.35
2018-07-14T04:58:44.592Z,15.80
2018-07-14T05:01:13.041Z,14.15
2018-07-14T05:03:41.592Z,12.65
2018-07-14T05:06:10.017Z,13.83
2018-07-14T05:08:38.437Z,12.53
2018-07-14T05:11:07.016Z,12.53
2018-07-14T05:26:36.163Z,12.30
2018-07-14T05:29:05.088Z,14.68
2018-07-14T05:31:37.101Z,10.80
2018-07-14T05:34:06.048Z,9.73
2018-07-14T05:36:34.469Z,11.05
2018-07-14T05:39:03.143Z,11.03
2018-07-14T05:41:31.679Z,12.78
2018-07-14T05:44:00.154Z,10.65
2018-07-14T05:46:29.437Z,10.53
2018-07-14T05:48:58.461Z,15.18
2018-07-14T05:51:26.882Z,9.18
2018-07-14T05:53:55.445Z,7.83
2018-07-14T05:56:23.991Z,10.43
2018-07-14T05:58:52.422Z,9.58
2018-07-14T06:01:20.840Z,7.75
2018-07-14T06:03:49.321Z,11.65
2018-07-14T06:06:17.754Z,8.53
2018-07-14T06:08:46.205Z,7.72
2018-07-14T06:11:14.616Z,9.43
2018-07-14T06:13:43.069Z,8.85
2018-07-14T06:16:11.516Z,7.15
2018-07-14T06:18:39.993Z,6.72
2018-07-14T06:21:08.518Z,6.10
2018-07-14T06:23:37.357Z,6.53
2018-07-14T06:26:05.901Z,7.58
2018-07-14T06:28:34.305Z,7.58
2018-07-14T06:31:02.742Z,5.95
2018-07-14T06:33:31.846Z,7.72
2018-07-14T06:36:00.304Z,4.90
2018-07-14T06:38:28.848Z,5.85
2018-07-14T06:40:57.687Z,5.05
2018-07-14T06:43:26.272Z,4.97
2018-07-14T06:45:54.688Z,6.03
2018-07-14T06:48:23.128Z,4.47
2018-07-14T06:50:51.576Z,4.80
2018-07-14T06:53:20.009Z,5.92
2018-07-14T06:55:48.488Z,5.12
2018-07-14T06:58:16.961Z,6.05
2018-07-14T07:00:45.467Z,4.28
2018-07-14T07:03:14.017Z,4.10
2018-07-14T07:05:42.855Z,5.65
2018-07-14T07:08:11.381Z,7.12
2018-07-14T07:10:39.836Z,4.65
2018-07-14T07:13:08.277Z,5.47
2018-07-14T07:15:36.900Z,6.85
2018-07-14T07:18:05.369Z,7.28
2018-07-14T07:20:33.844Z,6.87
2018-07-14T07:23:02.489Z,5.87
2018-07-14T07:25:31.074Z,8.25
2018-07-14T07:27:59.504Z,6.33
2018-07-14T07:30:28.019Z,5.92
2018-07-14T07:32:56.481Z,5.87
2018-07-14T07:35:24.960Z,6.55
2018-07-14T07:37:53.407Z,7.47
2018-07-14T07:40:22.268Z,6.47
2018-07-14T07:42:50.800Z,7.65
2018-07-14T07:45:19.243Z,5.87
2018-07-14T07:47:47.666Z,7.20
2018-07-14T07:50:16.130Z,16.62
2018-07-14T07:52:44.622Z,6.17
2018-07-14T07:55:13.271Z,5.85
2018-07-14T07:57:41.692Z,5.35
2018-07-14T08:00:10.202Z,6.25
2018-07-14T08:02:38.681Z,5.25
2018-07-14T08:05:07.397Z,6.22
2018-07-14T08:07:35.962Z,5.28
2018-07-14T08:10:04.462Z,5.83
2018-07-14T08:12:33.009Z,4.80
2018-07-14T08:15:01.440Z,4.95
2018-07-14T08:17:30.548Z,5.10
2018-07-14T08:19:59.029Z,4.22
2018-07-14T08:22:27.473Z,4.33
2018-07-14T08:24:55.970Z,5.12
2018-07-14T08:27:24.391Z,4.28
2018-07-14T08:29:52.840Z,5.83
2018-07-14T08:32:21.000Z,4.30
2018-07-14T08:34:49.467Z,3.95
2018-07-14T08:37:17.984Z,4.17
2018-07-14T08:39:46.123Z,4.97
2018-07-14T08:42:14.575Z,3.80
2018-07-14T08:44:43.504Z,4.65
2018-07-14T08:47:12.032Z,8.70
2018-07-14T08:49:40.586Z,8.00
2018-07-14T08:52:09.098Z,6.50
2018-07-14T08:54:37.548Z,4.40
2018-07-14T08:57:07.132Z,4.50
2018-07-14T08:59:36.513Z,4.33
2018-07-14T09:02:04.971Z,4.40
2018-07-14T09:04:33.532Z,4.08
2018-07-14T09:07:01.942Z,4.42
2018-07-14T09:09:30.510Z,4.20
2018-07-14T09:11:58.934Z,4.72
2018-07-14T09:14:27.510Z,4.78
2018-07-14T09:16:55.917Z,4.28
2018-07-14T09:19:24.396Z,4.35
2018-07-14T09:21:53.290Z,5.40
2018-07-14T09:24:21.788Z,7.55
2018-07-14T09:26:50.248Z,6.92
2018-07-14T09:29:18.660Z,5.42
2018-07-14T09:31:46.831Z,5.35
2018-07-14T09:34:15.298Z,8.20
2018-07-14T09:36:43.497Z,5.70
2018-07-14T09:39:12.002Z,6.20
2018-07-14T09:41:40.441Z,5.70
2018-07-14T09:44:09.047Z,6.15
2018-07-14T09:46:37.484Z,6.20
2018-07-14T09:49:07.212Z,6.60
2018-07-14T09:51:35.728Z,6.20
2018-07-14T09:54:04.364Z,6.05
2018-07-14T09:56:32.796Z,7.28
2018-07-14T09:59:01.283Z,7.80
2018-07-14T10:01:29.752Z,5.85
2018-07-14T10:03:58.226Z,5.15
2018-07-14T10:06:26.655Z,5.62
2018-07-14T10:08:55.140Z,6.83
2018-07-14T10:11:23.560Z,6.37
2018-07-14T10:13:52.078Z,6.35
2018-07-14T10:16:20.522Z,6.47
2018-07-14T10:18:48.985Z,5.40
2018-07-14T10:21:17.497Z,5.40
2018-07-14T10:23:45.931Z,5.20
2018-07-14T10:26:14.420Z,5.22
2018-07-14T10:28:42.887Z,5.10
2018-07-14T10:31:11.365Z,5.33
2018-07-14T10:33:39.893Z,6.15
2018-07-14T10:36:08.259Z,6.50
2018-07-14T10:38:36.660Z,6.17
2018-07-14T10:41:05.100Z,7.22
2018-07-14T10:43:33.513Z,6.75
2018-07-14T10:46:01.633Z,6.95
2018-07-14T10:48:30.348Z,8.58
2018-07-14T10:50:58.817Z,5.78
2018-07-14T10:53:28.062Z,6.65
2018-07-14T10:55:56.525Z,5.50
2018-07-14T10:58:25.021Z,6.00
2018-07-14T11:00:53.493Z,5.87
2018-07-14T11:03:21.965Z,6.12
2018-07-14T11:05:50.397Z,5.62
2018-07-14T11:08:18.844Z,5.10
2018-07-14T11:10:47.402Z,5.65
2018-07-14T11:13:15.853Z,6.03
2018-07-14T11:15:44.306Z,6.67
2018-07-14T11:18:12.733Z,6.08
2018-07-14T11:20:41.193Z,4.90
2018-07-14T11:23:09.600Z,5.97
2018-07-14T11:25:38.134Z,6.22
2018-07-14T11:28:06.685Z,5.33
2018-07-14T11:30:35.189Z,4.47
2018-07-14T11:33:03.620Z,4.72
2018-07-14T11:35:32.084Z,4.45
2018-07-14T11:38:00.581Z,6.15
2018-07-14T11:40:29.053Z,6.05
2018-07-14T11:42:57.512Z,6.00
2018-07-14T11:45:25.962Z,7.03
2018-07-14T11:47:54.458Z,5.90
2018-07-14T11:50:22.916Z,5.97
2018-07-14T11:52:51.504Z,4.58
2018-07-14T11:55:19.988Z,4.80
2018-07-14T11:57:48.393Z,6.72
2018-07-14T12:00:16.965Z,7.03
2018-07-14T12:02:45.398Z,8.73
2018-07-14T12:05:13.948Z,6.28
2018-07-14T12:07:42.401Z,5.10
2018-07-14T12:10:10.911Z,6.40
2018-07-14T12:12:39.365Z,4.80
2018-07-14T12:15:08.027Z,8.20
2018-07-14T12:17:36.537Z,6.50
2018-07-14T12:20:05.120Z,4.97
2018-07-14T12:22:33.611Z,7.67
2018-07-14T12:25:02.053Z,6.70
2018-07-14T12:27:30.525Z,6.75
2018-07-14T12:29:59.048Z,7.90
2018-07-14T12:32:27.613Z,8.75
2018-07-14T12:34:56.602Z,6.35
2018-07-14T12:37:25.749Z,6.90
2018-07-14T12:39:54.234Z,5.75
2018-07-14T12:42:22.693Z,6.25
2018-07-14T12:44:51.114Z,7.22
2018-07-14T12:47:19.613Z,7.65
2018-07-14T12:49:48.072Z,6.53
2018-07-14T12:52:16.620Z,8.15
2018-07-14T12:54:45.109Z,7.08
2018-07-14T12:57:13.552Z,8.55
2018-07-14T12:59:41.985Z,6.55
2018-07-14T13:02:10.501Z,7.28
2018-07-14T13:04:38.987Z,6.03
2018-07-14T13:07:07.624Z,6.62
2018-07-14T13:09:36.070Z,9.00
2018-07-14T13:12:04.644Z,6.42
2018-07-14T13:14:33.131Z,6.53
2018-07-14T13:17:01.561Z,6.78
2018-07-14T13:19:30.040Z,5.67
2018-07-14T13:21:58.610Z,6.65
2018-07-14T13:24:27.210Z,6.17
2018-07-14T13:26:55.721Z,6.70
2018-07-14T13:29:24.223Z,8.43
2018-07-14T13:31:52.664Z,5.87
2018-07-14T13:34:21.128Z,9.38
2018-07-14T13:36:49.574Z,6.53
2018-07-14T13:39:18.061Z,7.42
2018-07-14T13:41:46.521Z,8.13
2018-07-14T13:44:21.549Z,7.78
2018-07-14T13:46:50.022Z,6.65
2018-07-14T13:49:18.587Z,7.60
2018-07-14T13:51:47.128Z,7.42
2018-07-14T13:54:15.656Z,8.90
2018-07-14T13:56:44.167Z,6.85
2018-07-14T13:59:12.678Z,7.25
2018-07-14T14:01:41.093Z,8.08
2018-07-14T14:04:09.610Z,7.83
2018-07-14T14:06:38.901Z,7.90
2018-07-14T14:09:07.533Z,8.55
2018-07-14T14:11:36.226Z,7.30
2018-07-14T14:14:04.742Z,7.33
2018-07-14T14:16:33.288Z,8.20
2018-07-14T14:19:01.800Z,9.05
2018-07-14T14:21:30.830Z,8.83
2018-07-14T14:23:59.746Z,20.77
2018-07-14T14:26:28.819Z,8.55
2018-07-14T14:28:57.518Z,8.80
2018-07-14T14:31:26.037Z,8.13
2018-07-14T14:33:54.474Z,8.13
2018-07-14T14:36:22.939Z,8.30
2018-07-14T14:38:52.337Z,9.65
2018-07-14T14:41:20.849Z,7.72
2018-07-14T14:43:49.007Z,7.95
2018-07-14T14:46:17.430Z,7.78
2018-07-14T14:48:46.048Z,8.50
2018-07-14T14:51:14.477Z,8.55
2018-07-14T14:53:44.155Z,19.32
2018-07-14T14:56:12.933Z,8.68
2018-07-14T14:58:41.376Z,6.78
2018-07-14T15:01:09.925Z,7.55
2018-07-14T15:03:38.480Z,7.33
2018-07-14T15:06:06.917Z,33.98
2018-07-14T15:08:35.393Z,27.10
2018-07-14T15:11:03.889Z,9.88
2018-07-14T15:13:32.469Z,7.05
2018-07-14T15:16:01.020Z,6.00
2018-07-14T15:18:29.509Z,6.90
2018-07-14T15:20:58.027Z,7.42
2018-07-14T15:23:26.477Z,6.15
2018-07-14T15:25:55.036Z,5.28
2018-07-14T15:28:23.452Z,5.95
2018-07-14T15:30:51.928Z,5.65
2018-07-14T15:33:20.509Z,6.05
2018-07-14T15:35:49.202Z,6.17
2018-07-14T15:38:17.657Z,6.58
2018-07-14T15:40:46.264Z,7.20
2018-07-14T15:43:14.814Z,5.53
2018-07-14T15:45:43.294Z,4.45
2018-07-14T15:48:11.776Z,5.78
2018-07-14T15:50:40.264Z,4.28
2018-07-14T15:53:08.709Z,4.87
2018-07-14T15:55:37.898Z,3.75
2018-07-14T15:58:06.515Z,6.03
2018-07-14T16:00:34.972Z,3.62
2018-07-14T16:03:03.417Z,5.20
2018-07-14T16:05:31.897Z,5.08
2018-07-14T16:08:00.373Z,3.80
2018-07-14T16:10:28.841Z,7.70
2018-07-14T16:12:57.693Z,4.65
2018-07-14T16:15:26.750Z,6.65
2018-07-14T16:17:55.180Z,4.08
2018-07-14T16:20:23.686Z,5.03
2018-07-14T16:22:52.108Z,4.50
2018-07-14T16:25:20.548Z,3.30
2018-07-14T16:27:48.999Z,3.95
2018-07-14T16:30:17.421Z,3.58
2018-07-14T16:32:45.980Z,3.17
2018-07-14T16:35:14.438Z,4.12
2018-07-14T16:37:42.961Z,3.62
2018-07-14T16:40:11.482Z,3.95
2018-07-14T16:42:39.952Z,5.85
2018-07-14T16:45:08.558Z,4.85
2018-07-14T16:47:36.977Z,5.40
2018-07-14T16:50:05.457Z,4.22
2018-07-14T16:52:33.925Z,4.40
2018-07-14T16:55:02.400Z,4.28
2018-07-14T16:57:30.920Z,8.98
2018-07-14T17:00:00.097Z,7.35
2018-07-14T17:02:31.461Z,4.10
2018-07-14T17:04:59.996Z,3.90
2018-07-14T17:07:28.530Z,3.55
2018-07-14T17:09:56.968Z,3.87
2018-07-14T17:12:25.511Z,3.85
2018-07-14T17:14:54.093Z,3.52
2018-07-14T17:17:22.822Z,2.30
2018-07-14T17:19:51.272Z,2.40
2018-07-14T17:22:19.696Z,3.77
2018-07-14T17:24:48.133Z,2.62
2018-07-14T17:27:16.580Z,2.33
2018-07-14T17:29:45.022Z,2.50
2018-07-14T17:32:13.459Z,2.33
2018-07-14T17:34:41.954Z,4.03
2018-07-14T17:37:10.406Z,1.77
2018-07-14T17:39:39.486Z,2.25
2018-07-14T17:42:07.940Z,3.22
2018-07-14T17:44:36.481Z,3.08
2018-07-14T17:47:05.075Z,2.47
2018-07-14T17:49:33.557Z,3.12
2018-07-14T17:52:02.224Z,3.30
2018-07-14T17:54:30.553Z,2.30
2018-07-14T17:56:59.010Z,3.17
2018-07-14T17:59:27.607Z,2.80
2018-07-14T18:01:56.081Z,2.50
2018-07-14T18:04:24.749Z,4.12
2018-07-14T18:06:53.231Z,2.45
2018-07-14T18:09:21.664Z,2.62
2018-07-14T18:11:50.185Z,3.87
2018-07-14T18:14:18.696Z,2.10
2018-07-14T18:16:47.163Z,3.45
2018-07-14T18:19:15.731Z,3.25
2018-07-14T18:21:44.200Z,3.08
2018-07-14T18:24:12.659Z,2.83
2018-07-14T18:26:41.173Z,3.87
2018-07-14T18:29:09.652Z,3.10
2018-07-14T18:31:38.374Z,2.90
2018-07-14T18:34:06.921Z,2.95
2018-07-14T18:36:35.472Z,2.60
2018-07-14T18:39:05.255Z,3.77
2018-07-14T18:41:33.750Z,3.58
2018-07-14T18:44:02.307Z,6.17
2018-07-14T18:46:30.918Z,3.20
2018-07-14T18:48:59.465Z,3.60
2018-07-14T18:51:28.011Z,3.98
2018-07-14T18:53:57.117Z,2.92
2018-07-14T18:56:25.590Z,1.92
2018-07-14T18:58:54.485Z,2.70
2018-07-14T19:01:23.255Z,2.25
2018-07-14T19:03:51.753Z,1.92
2018-07-14T19:06:20.234Z,1.95
2018-07-14T19:08:48.701Z,2.27
2018-07-14T19:11:17.234Z,7.75
2018-07-14T19:13:45.724Z,3.77
2018-07-14T19:16:14.340Z,2.35
2018-07-14T19:18:42.808Z,2.45
2018-07-14T19:21:11.399Z,3.15
2018-07-14T19:23:39.830Z,7.58
2018-07-14T19:26:08.408Z,2.42
2018-07-14T19:28:37.032Z,2.92
2018-07-14T19:31:05.542Z,3.50
2018-07-14T19:33:33.980Z,2.25
2018-07-14T19:36:02.404Z,3.52
2018-07-14T19:38:30.944Z,3.25
2018-07-14T19:40:59.417Z,3.58
2018-07-14T19:43:27.992Z,2.05
2018-07-14T19:45:56.432Z,3.22
2018-07-14T19:48:24.950Z,2.30
2018-07-14T19:50:53.401Z,4.42
2018-07-14T19:53:21.826Z,2.55
2018-07-14T19:55:50.276Z,2.83
2018-07-14T19:58:18.852Z,2.00
2018-07-14T20:00:47.344Z,2.37
2018-07-14T20:03:15.878Z,1.87
2018-07-14T20:05:44.477Z,2.08
2018-07-14T20:08:12.941Z,2.08
2018-07-14T20:10:41.400Z,1.90
2018-07-14T20:13:09.874Z,2.35
2018-07-14T20:15:38.335Z,2.27
2018-07-14T20:18:07.485Z,6.30
2018-07-14T20:20:35.884Z,2.95
2018-07-14T20:23:04.428Z,2.05
2018-07-14T20:25:33.253Z,3.42
2018-07-14T20:28:01.746Z,3.17
2018-07-14T20:30:30.347Z,6.83
2018-07-14T20:32:58.768Z,2.98
2018-07-14T20:35:27.425Z,2.12
2018-07-14T20:37:55.925Z,2.55
2018-07-14T20:40:24.489Z,3.35
2018-07-14T20:42:52.951Z,1.90
2018-07-14T20:45:21.453Z,1.52
2018-07-14T20:47:50.110Z,4.15
2018-07-14T20:50:18.584Z,2.25
2018-07-14T20:52:47.073Z,1.90
2018-07-14T20:55:15.525Z,5.40
2018-07-14T20:57:44.679Z,2.83
2018-07-14T21:00:13.205Z,1.90
2018-07-14T21:02:41.653Z,2.25
2018-07-14T21:05:10.652Z,2.87
2018-07-14T21:07:39.222Z,2.30
2018-07-14T21:10:07.727Z,2.85
2018-07-14T21:12:36.254Z,1.92
2018-07-14T21:15:04.678Z,1.50
2018-07-14T21:17:33.193Z,2.25
2018-07-14T21:20:01.705Z,9.13
2018-07-14T21:22:30.177Z,4.10
2018-07-14T21:24:58.613Z,2.58
2018-07-14T21:27:27.117Z,2.33
2018-07-14T21:29:55.573Z,2.75
2018-07-14T21:32:24.011Z,2.10
2018-07-14T21:34:52.590Z,2.15
2018-07-14T21:37:21.052Z,2.00
2018-07-14T21:39:49.542Z,2.55
2018-07-14T21:42:17.976Z,3.22
2018-07-14T21:44:51.486Z,2.20
2018-07-14T21:47:19.945Z,1.80
2018-07-14T21:49:48.500Z,3.95
2018-07-14T21:52:16.970Z,3.40
2018-07-14T21:54:45.433Z,2.58
2018-07-14T21:57:13.934Z,1.80
2018-07-14T21:59:42.433Z,1.90
2018-07-14T22:02:11.034Z,3.92
2018-07-14T22:04:39.489Z,3.40
2018-07-14T22:07:08.010Z,2.05
2018-07-14T22:09:36.462Z,2.27
2018-07-14T22:12:05.073Z,2.10
2018-07-14T22:14:33.460Z,2.12
2018-07-14T22:17:01.984Z,9.70
2018-07-14T22:19:30.495Z,2.83
2018-07-14T22:21:59.678Z,2.02
2018-07-14T22:24:28.181Z,2.25
2018-07-14T22:26:56.741Z,3.75
2018-07-14T22:29:25.223Z,2.58
2018-07-14T22:31:54.205Z,3.87
2018-07-14T22:34:22.750Z,3.72
2018-07-14T22:36:51.210Z,2.33
2018-07-14T22:39:19.711Z,2.37
2018-07-14T22:41:49.277Z,2.95
2018-07-14T22:44:18.737Z,2.85
2018-07-14T22:46:47.209Z,2.60
2018-07-14T22:49:15.712Z,2.47
2018-07-14T22:51:44.135Z,2.30
2018-07-14T22:54:12.739Z,2.50
2018-07-14T22:56:41.192Z,4.30
2018-07-14T22:59:09.643Z,2.60
2018-07-14T23:01:38.206Z,6.15
2018-07-14T23:04:07.404Z,2.83
2018-07-14T23:06:36.439Z,2.83
2018-07-14T23:09:06.890Z,4.50
2018-07-14T23:11:36.194Z,2.98
2018-07-14T23:14:04.685Z,3.70
2018-07-14T23:16:33.185Z,2.83
2018-07-14T23:19:01.721Z,5.37
2018-07-14T23:21:30.214Z,4.40
2018-07-14T23:23:58.649Z,3.05
2018-07-14T23:26:27.124Z,4.15
2018-07-14T23:28:55.557Z,3.77
2018-07-14T23:31:24.147Z,3.27
2018-07-14T23:33:52.573Z,4.83
2018-07-14T23:36:21.749Z,3.00
2018-07-14T23:38:50.169Z,4.87
2018-07-14T23:41:18.704Z,3.22
2018-07-14T23:43:47.203Z,3.30
2018-07-14T23:46:15.626Z,3.27
2018-07-14T23:48:44.952Z,3.30
2018-07-14T23:51:13.361Z,3.20
2018-07-14T23:53:41.821Z,3.80
2018-07-14T23:56:10.300Z,5.35
2018-07-14T23:58:38.712Z,4.58
